sensor_id;sensor_type;location;lat;lon;timestamp;P1;durP1;ratioP1;P2;durP2;ratioP2
20417;SDS011;10368;51.436;6.774;2024-02-28T00:01:15;47.47;;;24.73;;
20417;SDS011;10368;51.436;6.774;2024-02-28T00:03:43;49.87;;;24.00;;
20417;SDS011;10368;51.436;6.774;2024-02-28T00:06:15;59.90;;;27.00;;
20417;SDS011;10368;51.436;6.774;2024-02-28T00:08:45;57.77;;;26.97;;
20417;SDS011;10368;51.436;6.774;2024-02-28T00:11:12;60.87;;;26.50;;
20417;SDS011;10368;51.436;6.774;2024-02-28T00:13:41;53.80;;;24.77;;
20417;SDS011;10368;51.436;6.774;2024-02-28T00:16:08;47.37;;;23.73;;
20417;SDS011;10368;51.436;6.774;2024-02-28T00:18:35;56.83;;;25.73;;
20417;SDS011;10368;51.436;6.774;2024-02-28T00:21:02;63.00;;;25.37;;
20417;SDS011;10368;51.436;6.774;2024-02-28T00:23:30;54.40;;;24.57;;
20417;SDS011;10368;51.436;6.774;2024-02-28T00:25:57;57.73;;;25.20;;
20417;SDS011;10368;51.436;6.774;2024-02-28T00:28:24;51.33;;;25.13;;
20417;SDS011;10368;51.436;6.774;2024-02-28T00:30:52;50.03;;;24.93;;
20417;SDS011;10368;51.436;6.774;2024-02-28T00:33:24;55.23;;;23.87;;
20417;SDS011;10368;51.436;6.774;2024-02-28T00:35:51;55.77;;;23.93;;
20417;SDS011;10368;51.436;6.774;2024-02-28T00:38:20;49.40;;;24.27;;
20417;SDS011;10368;51.436;6.774;2024-02-28T00:40:47;50.77;;;23.20;;
20417;SDS011;10368;51.436;6.774;2024-02-28T00:43:13;49.33;;;24.03;;
20417;SDS011;10368;51.436;6.774;2024-02-28T00:45:41;46.87;;;23.20;;
20417;SDS011;10368;51.436;6.774;2024-02-28T00:48:08;48.80;;;22.67;;
20417;SDS011;10368;51.436;6.774;2024-02-28T00:50:35;46.77;;;22.23;;
20417;SDS011;10368;51.436;6.774;2024-02-28T00:53:02;43.80;;;21.37;;
20417;SDS011;10368;51.436;6.774;2024-02-28T00:55:29;47.77;;;22.20;;
20417;SDS011;10368;51.436;6.774;2024-02-28T00:57:56;51.80;;;23.23;;
20417;SDS011;10368;51.436;6.774;2024-02-28T01:00:23;50.27;;;23.00;;
20417;SDS011;10368;51.436;6.774;2024-02-28T01:02:50;49.10;;;22.83;;
20417;SDS011;10368;51.436;6.774;2024-02-28T01:05:17;38.07;;;20.57;;
20417;SDS011;10368;51.436;6.774;2024-02-28T01:07:43;52.27;;;23.50;;
20417;SDS011;10368;51.436;6.774;2024-02-28T01:10:13;44.07;;;22.33;;
20417;SDS011;10368;51.436;6.774;2024-02-28T01:12:41;44.50;;;21.93;;
20417;SDS011;10368;51.436;6.774;2024-02-28T01:15:08;43.77;;;22.27;;
20417;SDS011;10368;51.436;6.774;2024-02-28T01:17:35;47.00;;;21.93;;
20417;SDS011;10368;51.436;6.774;2024-02-28T01:20:02;39.03;;;21.67;;
20417;SDS011;10368;51.436;6.774;2024-02-28T01:22:30;46.90;;;22.07;;
20417;SDS011;10368;51.436;6.774;2024-02-28T01:24:56;40.27;;;21.60;;
20417;SDS011;10368;51.436;6.774;2024-02-28T01:27:23;48.13;;;22.97;;
20417;SDS011;10368;51.436;6.774;2024-02-28T01:29:50;46.57;;;22.70;;
20417;SDS011;10368;51.436;6.774;2024-02-28T01:32:19;51.57;;;23.00;;
20417;SDS011;10368;51.436;6.774;2024-02-28T01:34:47;54.00;;;22.97;;
20417;SDS011;10368;51.436;6.774;2024-02-28T01:37:13;62.53;;;25.43;;
20417;SDS011;10368;51.436;6.774;2024-02-28T01:39:41;69.27;;;25.90;;
20417;SDS011;10368;51.436;6.774;2024-02-28T01:42:08;60.17;;;26.53;;
20417;SDS011;10368;51.436;6.774;2024-02-28T01:44:37;61.77;;;25.20;;
20417;SDS011;10368;51.436;6.774;2024-02-28T01:47:11;67.97;;;26.90;;
20417;SDS011;10368;51.436;6.774;2024-02-28T01:49:38;59.90;;;26.13;;
20417;SDS011;10368;51.436;6.774;2024-02-28T01:52:07;52.53;;;24.37;;
20417;SDS011;10368;51.436;6.774;2024-02-28T01:54:35;57.00;;;24.03;;
20417;SDS011;10368;51.436;6.774;2024-02-28T01:57:02;51.03;;;24.37;;
20417;SDS011;10368;51.436;6.774;2024-02-28T01:59:29;54.63;;;23.53;;
20417;SDS011;10368;51.436;6.774;2024-02-28T02:01:58;41.90;;;20.83;;
20417;SDS011;10368;51.436;6.774;2024-02-28T02:04:25;49.73;;;22.47;;
20417;SDS011;10368;51.436;6.774;2024-02-28T02:06:52;48.90;;;23.03;;
20417;SDS011;10368;51.436;6.774;2024-02-28T02:09:20;64.57;;;22.97;;
20417;SDS011;10368;51.436;6.774;2024-02-28T02:11:47;57.57;;;22.53;;
20417;SDS011;10368;51.436;6.774;2024-02-28T02:14:14;50.73;;;20.70;;
20417;SDS011;10368;51.436;6.774;2024-02-28T02:16:41;51.67;;;22.87;;
20417;SDS011;10368;51.436;6.774;2024-02-28T02:19:08;48.33;;;22.23;;
20417;SDS011;10368;51.436;6.774;2024-02-28T02:21:48;66.00;;;21.10;;
20417;SDS011;10368;51.436;6.774;2024-02-28T02:24:18;53.30;;;21.17;;
20417;SDS011;10368;51.436;6.774;2024-02-28T02:26:45;69.80;;;22.80;;
20417;SDS011;10368;51.436;6.774;2024-02-28T02:29:13;110.00;;;23.67;;
20417;SDS011;10368;51.436;6.774;2024-02-28T02:31:40;65.77;;;22.37;;
20417;SDS011;10368;51.436;6.774;2024-02-28T02:34:07;79.07;;;23.43;;
20417;SDS011;10368;51.436;6.774;2024-02-28T02:36:34;59.10;;;21.57;;
20417;SDS011;10368;51.436;6.774;2024-02-28T02:39:01;84.20;;;22.20;;
20417;SDS011;10368;51.436;6.774;2024-02-28T02:41:28;68.73;;;22.63;;
20417;SDS011;10368;51.436;6.774;2024-02-28T02:43:55;70.83;;;21.77;;
20417;SDS011;10368;51.436;6.774;2024-02-28T02:46:24;127.63;;;24.17;;
20417;SDS011;10368;51.436;6.774;2024-02-28T02:48:51;61.17;;;22.30;;
20417;SDS011;10368;51.436;6.774;2024-02-28T02:51:19;75.77;;;22.20;;
20417;SDS011;10368;51.436;6.774;2024-02-28T02:53:46;78.47;;;23.90;;
20417;SDS011;10368;51.436;6.774;2024-02-28T02:56:13;81.83;;;23.57;;
20417;SDS011;10368;51.436;6.774;2024-02-28T02:58:40;55.83;;;25.13;;
20417;SDS011;10368;51.436;6.774;2024-02-28T03:01:07;64.93;;;24.77;;
20417;SDS011;10368;51.436;6.774;2024-02-28T03:03:35;63.90;;;24.90;;
20417;SDS011;10368;51.436;6.774;2024-02-28T03:06:04;78.27;;;24.57;;
20417;SDS011;10368;51.436;6.774;2024-02-28T03:08:31;58.73;;;22.17;;
20417;SDS011;10368;51.436;6.774;2024-02-28T03:10:58;57.87;;;24.00;;
20417;SDS011;10368;51.436;6.774;2024-02-28T03:13:25;65.23;;;24.77;;
20417;SDS011;10368;51.436;6.774;2024-02-28T03:15:52;59.43;;;24.37;;
20417;SDS011;10368;51.436;6.774;2024-02-28T03:18:19;55.90;;;23.73;;
20417;SDS011;10368;51.436;6.774;2024-02-28T03:20:46;57.77;;;25.23;;
20417;SDS011;10368;51.436;6.774;2024-02-28T03:23:13;74.37;;;26.90;;
20417;SDS011;10368;51.436;6.774;2024-02-28T03:25:40;67.37;;;26.23;;
20417;SDS011;10368;51.436;6.774;2024-02-28T03:28:07;67.50;;;27.07;;
20417;SDS011;10368;51.436;6.774;2024-02-28T03:30:34;75.17;;;27.90;;
20417;SDS011;10368;51.436;6.774;2024-02-28T03:33:01;73.30;;;28.20;;
20417;SDS011;10368;51.436;6.774;2024-02-28T03:35:28;86.63;;;30.97;;
20417;SDS011;10368;51.436;6.774;2024-02-28T03:37:55;152.43;;;35.10;;
20417;SDS011;10368;51.436;6.774;2024-02-28T03:40:22;86.90;;;32.23;;
20417;SDS011;10368;51.436;6.774;2024-02-28T03:42:49;139.00;;;33.60;;
20417;SDS011;10368;51.436;6.774;2024-02-28T03:45:16;80.63;;;31.53;;
20417;SDS011;10368;51.436;6.774;2024-02-28T03:47:43;109.10;;;32.63;;
20417;SDS011;10368;51.436;6.774;2024-02-28T03:50:10;121.93;;;34.03;;
20417;SDS011;10368;51.436;6.774;2024-02-28T03:52:37;104.43;;;33.20;;
20417;SDS011;10368;51.436;6.774;2024-02-28T03:55:05;162.67;;;37.43;;
20417;SDS011;10368;51.436;6.774;2024-02-28T03:57:32;106.83;;;37.73;;
20417;SDS011;10368;51.436;6.774;2024-02-28T04:00:00;106.93;;;35.43;;
20417;SDS011;10368;51.436;6.774;2024-02-28T04:02:28;112.67;;;36.13;;
20417;SDS011;10368;51.436;6.774;2024-02-28T04:04:55;114.27;;;37.33;;
20417;SDS011;10368;51.436;6.774;2024-02-28T04:07:22;121.93;;;38.40;;
20417;SDS011;10368;51.436;6.774;2024-02-28T04:09:49;109.93;;;38.10;;
20417;SDS011;10368;51.436;6.774;2024-02-28T04:12:16;112.67;;;37.17;;
20417;SDS011;10368;51.436;6.774;2024-02-28T04:14:43;117.87;;;38.43;;
20417;SDS011;10368;51.436;6.774;2024-02-28T04:17:10;109.30;;;37.67;;
20417;SDS011;10368;51.436;6.774;2024-02-28T04:19:37;117.53;;;39.27;;
20417;SDS011;10368;51.436;6.774;2024-02-28T04:22:05;105.47;;;37.87;;
20417;SDS011;10368;51.436;6.774;2024-02-28T04:24:32;122.30;;;40.50;;
20417;SDS011;10368;51.436;6.774;2024-02-28T04:26:59;133.27;;;40.93;;
20417;SDS011;10368;51.436;6.774;2024-02-28T04:29:26;111.63;;;41.27;;
20417;SDS011;10368;51.436;6.774;2024-02-28T04:31:53;135.10;;;41.27;;
20417;SDS011;10368;51.436;6.774;2024-02-28T04:34:20;114.70;;;41.47;;
20417;SDS011;10368;51.436;6.774;2024-02-28T04:36:46;165.10;;;45.60;;
20417;SDS011;10368;51.436;6.774;2024-02-28T04:39:13;115.90;;;41.50;;
20417;SDS011;10368;51.436;6.774;2024-02-28T04:41:41;160.27;;;43.07;;
20417;SDS011;10368;51.436;6.774;2024-02-28T04:44:08;129.23;;;44.23;;
20417;SDS011;10368;51.436;6.774;2024-02-28T04:46:35;139.10;;;44.63;;
20417;SDS011;10368;51.436;6.774;2024-02-28T04:49:04;187.10;;;44.20;;
20417;SDS011;10368;51.436;6.774;2024-02-28T04:51:31;128.73;;;43.80;;
20417;SDS011;10368;51.436;6.774;2024-02-28T04:53:58;136.40;;;43.20;;
20417;SDS011;10368;51.436;6.774;2024-02-28T04:56:25;125.27;;;44.03;;
20417;SDS011;10368;51.436;6.774;2024-02-28T04:58:52;121.90;;;43.13;;
20417;SDS011;10368;51.436;6.774;2024-02-28T05:01:19;127.83;;;43.23;;
20417;SDS011;10368;51.436;6.774;2024-02-28T05:03:47;121.27;;;42.13;;
20417;SDS011;10368;51.436;6.774;2024-02-28T05:06:14;134.17;;;41.60;;
20417;SDS011;10368;51.436;6.774;2024-02-28T05:08:42;127.97;;;40.97;;
20417;SDS011;10368;51.436;6.774;2024-02-28T05:11:09;118.93;;;40.17;;
20417;SDS011;10368;51.436;6.774;2024-02-28T05:13:36;116.60;;;39.77;;
20417;SDS011;10368;51.436;6.774;2024-02-28T05:16:03;111.53;;;38.27;;
20417;SDS011;10368;51.436;6.774;2024-02-28T05:18:30;107.30;;;38.63;;
20417;SDS011;10368;51.436;6.774;2024-02-28T05:20:57;126.87;;;40.63;;
20417;SDS011;10368;51.436;6.774;2024-02-28T05:23:27;125.13;;;39.63;;
20417;SDS011;10368;51.436;6.774;2024-02-28T05:25:54;113.67;;;40.23;;
20417;SDS011;10368;51.436;6.774;2024-02-28T05:28:20;151.07;;;42.77;;
20417;SDS011;10368;51.436;6.774;2024-02-28T05:30:47;106.07;;;38.83;;
20417;SDS011;10368;51.436;6.774;2024-02-28T05:33:16;125.23;;;41.57;;
20417;SDS011;10368;51.436;6.774;2024-02-28T05:35:44;167.80;;;43.23;;
20417;SDS011;10368;51.436;6.774;2024-02-28T05:38:11;119.30;;;41.97;;
20417;SDS011;10368;51.436;6.774;2024-02-28T05:40:38;130.13;;;42.83;;
20417;SDS011;10368;51.436;6.774;2024-02-28T05:43:07;148.83;;;45.97;;
20417;SDS011;10368;51.436;6.774;2024-02-28T05:45:34;129.47;;;44.63;;
20417;SDS011;10368;51.436;6.774;2024-02-28T05:48:01;146.00;;;44.57;;
20417;SDS011;10368;51.436;6.774;2024-02-28T05:50:28;132.50;;;43.33;;
20417;SDS011;10368;51.436;6.774;2024-02-28T05:52:56;184.47;;;49.07;;
20417;SDS011;10368;51.436;6.774;2024-02-28T05:55:23;192.40;;;48.17;;
20417;SDS011;10368;51.436;6.774;2024-02-28T05:57:52;154.50;;;46.83;;
20417;SDS011;10368;51.436;6.774;2024-02-28T06:00:19;156.80;;;46.37;;
20417;SDS011;10368;51.436;6.774;2024-02-28T06:02:46;135.57;;;45.83;;
20417;SDS011;10368;51.436;6.774;2024-02-28T06:05:13;151.77;;;48.53;;
20417;SDS011;10368;51.436;6.774;2024-02-28T06:07:40;182.50;;;46.47;;
20417;SDS011;10368;51.436;6.774;2024-02-28T06:10:07;144.43;;;46.97;;
20417;SDS011;10368;51.436;6.774;2024-02-28T06:12:34;148.23;;;45.43;;
20417;SDS011;10368;51.436;6.774;2024-02-28T06:15:01;165.03;;;46.87;;
20417;SDS011;10368;51.436;6.774;2024-02-28T06:17:30;159.17;;;45.77;;
20417;SDS011;10368;51.436;6.774;2024-02-28T06:19:57;153.50;;;45.53;;
20417;SDS011;10368;51.436;6.774;2024-02-28T06:22:25;151.27;;;46.47;;
20417;SDS011;10368;51.436;6.774;2024-02-28T06:24:52;158.33;;;46.37;;
20417;SDS011;10368;51.436;6.774;2024-02-28T06:27:19;144.83;;;44.90;;
20417;SDS011;10368;51.436;6.774;2024-02-28T06:29:46;165.63;;;43.17;;
20417;SDS011;10368;51.436;6.774;2024-02-28T06:32:14;122.97;;;41.53;;
20417;SDS011;10368;51.436;6.774;2024-02-28T06:34:41;136.17;;;40.73;;
20417;SDS011;10368;51.436;6.774;2024-02-28T06:37:08;119.60;;;35.70;;
20417;SDS011;10368;51.436;6.774;2024-02-28T06:39:35;107.63;;;36.00;;
20417;SDS011;10368;51.436;6.774;2024-02-28T06:42:02;102.33;;;35.37;;
20417;SDS011;10368;51.436;6.774;2024-02-28T06:44:29;105.27;;;35.40;;
20417;SDS011;10368;51.436;6.774;2024-02-28T06:46:56;106.70;;;36.20;;
20417;SDS011;10368;51.436;6.774;2024-02-28T06:49:23;104.50;;;35.57;;
20417;SDS011;10368;51.436;6.774;2024-02-28T06:51:50;113.63;;;35.07;;
20417;SDS011;10368;51.436;6.774;2024-02-28T06:54:17;105.57;;;35.87;;
20417;SDS011;10368;51.436;6.774;2024-02-28T06:56:44;99.27;;;33.20;;
20417;SDS011;10368;51.436;6.774;2024-02-28T06:59:11;91.63;;;34.67;;
20417;SDS011;10368;51.436;6.774;2024-02-28T07:01:38;125.37;;;35.43;;
20417;SDS011;10368;51.436;6.774;2024-02-28T07:04:05;116.93;;;33.93;;
20417;SDS011;10368;51.436;6.774;2024-02-28T07:06:32;97.83;;;32.73;;
20417;SDS011;10368;51.436;6.774;2024-02-28T07:08:59;127.33;;;34.43;;
20417;SDS011;10368;51.436;6.774;2024-02-28T07:11:26;101.17;;;32.70;;
20417;SDS011;10368;51.436;6.774;2024-02-28T07:13:53;130.53;;;35.13;;
20417;SDS011;10368;51.436;6.774;2024-02-28T07:16:21;133.40;;;35.23;;
20417;SDS011;10368;51.436;6.774;2024-02-28T07:18:47;109.70;;;35.33;;
20417;SDS011;10368;51.436;6.774;2024-02-28T07:21:17;104.57;;;33.37;;
20417;SDS011;10368;51.436;6.774;2024-02-28T07:23:44;107.13;;;34.17;;
20417;SDS011;10368;51.436;6.774;2024-02-28T07:26:17;149.87;;;36.67;;
20417;SDS011;10368;51.436;6.774;2024-02-28T07:28:52;106.13;;;34.27;;
20417;SDS011;10368;51.436;6.774;2024-02-28T07:31:19;120.40;;;34.57;;
20417;SDS011;10368;51.436;6.774;2024-02-28T07:33:47;117.80;;;35.63;;
20417;SDS011;10368;51.436;6.774;2024-02-28T07:36:14;119.23;;;33.80;;
20417;SDS011;10368;51.436;6.774;2024-02-28T07:38:41;125.50;;;33.70;;
20417;SDS011;10368;51.436;6.774;2024-02-28T07:41:08;104.73;;;31.73;;
20417;SDS011;10368;51.436;6.774;2024-02-28T07:43:35;112.80;;;33.20;;
20417;SDS011;10368;51.436;6.774;2024-02-28T07:46:08;105.70;;;33.07;;
20417;SDS011;10368;51.436;6.774;2024-02-28T07:48:37;112.83;;;34.53;;
20417;SDS011;10368;51.436;6.774;2024-02-28T07:51:05;115.87;;;34.80;;
20417;SDS011;10368;51.436;6.774;2024-02-28T07:53:32;105.70;;;33.20;;
20417;SDS011;10368;51.436;6.774;2024-02-28T07:55:59;115.30;;;34.67;;
20417;SDS011;10368;51.436;6.774;2024-02-28T07:58:26;111.00;;;34.00;;
20417;SDS011;10368;51.436;6.774;2024-02-28T08:00:53;127.30;;;35.43;;
20417;SDS011;10368;51.436;6.774;2024-02-28T08:03:20;122.57;;;34.13;;
20417;SDS011;10368;51.436;6.774;2024-02-28T08:05:47;111.33;;;34.43;;
20417;SDS011;10368;51.436;6.774;2024-02-28T08:08:14;111.73;;;35.30;;
20417;SDS011;10368;51.436;6.774;2024-02-28T08:10:41;116.90;;;35.83;;
20417;SDS011;10368;51.436;6.774;2024-02-28T08:13:08;115.67;;;33.07;;
20417;SDS011;10368;51.436;6.774;2024-02-28T08:15:35;116.93;;;35.77;;
20417;SDS011;10368;51.436;6.774;2024-02-28T08:18:02;110.27;;;36.13;;
20417;SDS011;10368;51.436;6.774;2024-02-28T08:20:30;111.93;;;35.73;;
20417;SDS011;10368;51.436;6.774;2024-02-28T08:22:58;122.83;;;35.43;;
20417;SDS011;10368;51.436;6.774;2024-02-28T08:25:26;122.53;;;34.30;;
20417;SDS011;10368;51.436;6.774;2024-02-28T08:27:53;120.43;;;35.53;;
20417;SDS011;10368;51.436;6.774;2024-02-28T08:30:20;114.40;;;35.67;;
20417;SDS011;10368;51.436;6.774;2024-02-28T08:32:47;113.20;;;36.50;;
20417;SDS011;10368;51.436;6.774;2024-02-28T08:35:14;115.67;;;35.10;;
20417;SDS011;10368;51.436;6.774;2024-02-28T08:37:44;112.67;;;36.80;;
20417;SDS011;10368;51.436;6.774;2024-02-28T08:40:11;114.50;;;33.53;;
20417;SDS011;10368;51.436;6.774;2024-02-28T08:42:38;143.53;;;42.13;;
20417;SDS011;10368;51.436;6.774;2024-02-28T08:45:05;113.73;;;36.10;;
20417;SDS011;10368;51.436;6.774;2024-02-28T08:47:33;110.00;;;33.83;;
20417;SDS011;10368;51.436;6.774;2024-02-28T08:50:00;109.80;;;33.90;;
20417;SDS011;10368;51.436;6.774;2024-02-28T08:52:27;118.13;;;35.90;;
20417;SDS011;10368;51.436;6.774;2024-02-28T08:54:54;124.47;;;34.63;;
20417;SDS011;10368;51.436;6.774;2024-02-28T08:57:21;116.87;;;35.17;;
20417;SDS011;10368;51.436;6.774;2024-02-28T08:59:50;125.63;;;37.70;;
20417;SDS011;10368;51.436;6.774;2024-02-28T09:02:19;115.87;;;34.87;;
20417;SDS011;10368;51.436;6.774;2024-02-28T09:04:46;108.80;;;36.33;;
20417;SDS011;10368;51.436;6.774;2024-02-28T09:07:17;108.07;;;36.07;;
20417;SDS011;10368;51.436;6.774;2024-02-28T09:09:45;98.43;;;32.67;;
20417;SDS011;10368;51.436;6.774;2024-02-28T09:12:12;97.13;;;31.93;;
20417;SDS011;10368;51.436;6.774;2024-02-28T09:14:42;85.03;;;30.57;;
20417;SDS011;10368;51.436;6.774;2024-02-28T09:17:11;95.63;;;32.73;;
20417;SDS011;10368;51.436;6.774;2024-02-28T09:19:38;95.17;;;32.07;;
20417;SDS011;10368;51.436;6.774;2024-02-28T09:22:05;90.10;;;32.20;;
20417;SDS011;10368;51.436;6.774;2024-02-28T09:24:32;88.20;;;31.90;;
20417;SDS011;10368;51.436;6.774;2024-02-28T09:27:00;96.00;;;34.80;;
20417;SDS011;10368;51.436;6.774;2024-02-28T09:29:27;88.70;;;31.13;;
20417;SDS011;10368;51.436;6.774;2024-02-28T09:31:53;93.77;;;32.20;;
20417;SDS011;10368;51.436;6.774;2024-02-28T09:34:20;91.80;;;32.33;;
20417;SDS011;10368;51.436;6.774;2024-02-28T09:36:48;95.60;;;34.20;;
20417;SDS011;10368;51.436;6.774;2024-02-28T09:58:21;64.77;;;26.00;;
20417;SDS011;10368;51.436;6.774;2024-02-28T10:00:49;62.23;;;26.40;;
20417;SDS011;10368;51.436;6.774;2024-02-28T10:03:19;76.63;;;29.67;;
20417;SDS011;10368;51.436;6.774;2024-02-28T10:05:46;64.20;;;29.17;;
20417;SDS011;10368;51.436;6.774;2024-02-28T10:08:14;74.67;;;29.93;;
20417;SDS011;10368;51.436;6.774;2024-02-28T10:10:47;84.57;;;31.83;;
20417;SDS011;10368;51.436;6.774;2024-02-28T10:13:18;83.30;;;31.00;;
20417;SDS011;10368;51.436;6.774;2024-02-28T10:15:45;83.10;;;32.73;;
20417;SDS011;10368;51.436;6.774;2024-02-28T10:18:12;87.90;;;33.77;;
20417;SDS011;10368;51.436;6.774;2024-02-28T10:20:39;78.67;;;30.43;;
20417;SDS011;10368;51.436;6.774;2024-02-28T10:23:06;81.73;;;32.03;;
20417;SDS011;10368;51.436;6.774;2024-02-28T10:25:44;88.23;;;31.23;;
20417;SDS011;10368;51.436;6.774;2024-02-28T10:28:22;67.40;;;29.27;;
20417;SDS011;10368;51.436;6.774;2024-02-28T10:30:50;74.20;;;30.80;;
20417;SDS011;10368;51.436;6.774;2024-02-28T10:33:17;74.83;;;31.37;;
20417;SDS011;10368;51.436;6.774;2024-02-28T10:35:44;73.63;;;28.50;;
20417;SDS011;10368;51.436;6.774;2024-02-28T10:38:12;80.67;;;31.53;;
20417;SDS011;10368;51.436;6.774;2024-02-28T10:40:39;83.67;;;29.27;;
20417;SDS011;10368;51.436;6.774;2024-02-28T10:43:08;78.63;;;31.03;;
20417;SDS011;10368;51.436;6.774;2024-02-28T10:45:36;74.03;;;29.23;;
20417;SDS011;10368;51.436;6.774;2024-02-28T10:48:27;86.80;;;31.27;;
20417;SDS011;10368;51.436;6.774;2024-02-28T10:50:54;69.90;;;28.40;;
20417;SDS011;10368;51.436;6.774;2024-02-28T10:53:22;75.60;;;29.53;;
20417;SDS011;10368;51.436;6.774;2024-02-28T10:56:00;67.90;;;27.93;;
20417;SDS011;10368;51.436;6.774;2024-02-28T10:58:33;68.43;;;26.77;;
20417;SDS011;10368;51.436;6.774;2024-02-28T11:01:05;61.23;;;26.17;;
20417;SDS011;10368;51.436;6.774;2024-02-28T11:03:32;58.80;;;25.80;;
20417;SDS011;10368;51.436;6.774;2024-02-28T11:06:00;65.60;;;29.60;;
20417;SDS011;10368;51.436;6.774;2024-02-28T11:08:27;70.13;;;28.13;;
20417;SDS011;10368;51.436;6.774;2024-02-28T11:10:58;61.93;;;27.80;;
20417;SDS011;10368;51.436;6.774;2024-02-28T11:13:33;54.47;;;25.90;;
20417;SDS011;10368;51.436;6.774;2024-02-28T11:16:07;59.37;;;26.33;;
20417;SDS011;10368;51.436;6.774;2024-02-28T11:18:36;78.33;;;27.27;;
20417;SDS011;10368;51.436;6.774;2024-02-28T11:21:17;55.27;;;25.87;;
20417;SDS011;10368;51.436;6.774;2024-02-28T11:23:47;55.40;;;26.20;;
20417;SDS011;10368;51.436;6.774;2024-02-28T11:26:14;59.03;;;27.57;;
20417;SDS011;10368;51.436;6.774;2024-02-28T11:28:42;47.73;;;24.63;;
20417;SDS011;10368;51.436;6.774;2024-02-28T11:31:11;66.37;;;26.70;;
20417;SDS011;10368;51.436;6.774;2024-02-28T11:33:38;57.53;;;27.23;;
20417;SDS011;10368;51.436;6.774;2024-02-28T11:36:05;54.60;;;27.60;;
20417;SDS011;10368;51.436;6.774;2024-02-28T11:38:36;54.97;;;26.60;;
20417;SDS011;10368;51.436;6.774;2024-02-28T11:41:06;55.77;;;25.97;;
20417;SDS011;10368;51.436;6.774;2024-02-28T11:43:33;56.23;;;26.70;;
20417;SDS011;10368;51.436;6.774;2024-02-28T11:46:17;49.47;;;24.47;;
20417;SDS011;10368;51.436;6.774;2024-02-28T11:48:45;45.53;;;22.13;;
20417;SDS011;10368;51.436;6.774;2024-02-28T11:51:12;51.43;;;24.50;;
20417;SDS011;10368;51.436;6.774;2024-02-28T11:53:39;45.63;;;22.80;;
20417;SDS011;10368;51.436;6.774;2024-02-28T11:56:06;44.83;;;23.83;;
20417;SDS011;10368;51.436;6.774;2024-02-28T11:58:34;45.60;;;22.77;;
20417;SDS011;10368;51.436;6.774;2024-02-28T12:01:02;54.17;;;24.37;;
20417;SDS011;10368;51.436;6.774;2024-02-28T12:03:29;44.23;;;23.43;;
20417;SDS011;10368;51.436;6.774;2024-02-28T12:05:56;45.53;;;24.83;;
20417;SDS011;10368;51.436;6.774;2024-02-28T12:08:23;40.67;;;22.70;;
20417;SDS011;10368;51.436;6.774;2024-02-28T12:10:54;43.83;;;22.13;;
20417;SDS011;10368;51.436;6.774;2024-02-28T12:13:22;52.93;;;24.20;;
20417;SDS011;10368;51.436;6.774;2024-02-28T12:15:49;43.00;;;23.50;;
20417;SDS011;10368;51.436;6.774;2024-02-28T12:18:16;38.57;;;21.60;;
20417;SDS011;10368;51.436;6.774;2024-02-28T12:20:43;37.17;;;22.23;;
20417;SDS011;10368;51.436;6.774;2024-02-28T12:23:12;39.60;;;23.67;;
20417;SDS011;10368;51.436;6.774;2024-02-28T12:25:39;35.17;;;22.10;;
20417;SDS011;10368;51.436;6.774;2024-02-28T12:28:06;40.55;;;24.42;;
20417;SDS011;10368;51.436;6.774;2024-02-28T12:30:39;39.25;;;23.85;;
20417;SDS011;10368;51.436;6.774;2024-02-28T12:33:10;39.08;;;23.13;;
20417;SDS011;10368;51.436;6.774;2024-02-28T12:35:38;46.33;;;24.42;;
20417;SDS011;10368;51.436;6.774;2024-02-28T12:38:05;40.08;;;22.00;;
20417;SDS011;10368;51.436;6.774;2024-02-28T12:40:32;32.63;;;21.65;;
20417;SDS011;10368;51.436;6.774;2024-02-28T12:42:58;35.53;;;22.10;;
20417;SDS011;10368;51.436;6.774;2024-02-28T12:45:27;41.47;;;22.55;;
20417;SDS011;10368;51.436;6.774;2024-02-28T12:47:54;35.47;;;22.08;;
20417;SDS011;10368;51.436;6.774;2024-02-28T12:50:23;40.88;;;22.98;;
20417;SDS011;10368;51.436;6.774;2024-02-28T12:52:50;35.42;;;22.08;;
20417;SDS011;10368;51.436;6.774;2024-02-28T12:55:20;36.55;;;22.58;;
20417;SDS011;10368;51.436;6.774;2024-02-28T12:57:50;36.35;;;23.40;;
20417;SDS011;10368;51.436;6.774;2024-02-28T13:00:17;40.45;;;21.85;;
20417;SDS011;10368;51.436;6.774;2024-02-28T13:02:44;30.15;;;20.48;;
20417;SDS011;10368;51.436;6.774;2024-02-28T13:05:11;38.60;;;22.50;;
20417;SDS011;10368;51.436;6.774;2024-02-28T13:07:41;32.03;;;21.60;;
20417;SDS011;10368;51.436;6.774;2024-02-28T13:10:08;37.50;;;21.52;;
20417;SDS011;10368;51.436;6.774;2024-02-28T13:12:37;30.08;;;20.60;;
20417;SDS011;10368;51.436;6.774;2024-02-28T13:15:05;35.75;;;22.77;;
20417;SDS011;10368;51.436;6.774;2024-02-28T13:17:34;36.85;;;23.05;;
20417;SDS011;10368;51.436;6.774;2024-02-28T13:20:01;33.28;;;21.63;;
20417;SDS011;10368;51.436;6.774;2024-02-28T13:22:29;29.75;;;20.02;;
20417;SDS011;10368;51.436;6.774;2024-02-28T13:24:56;31.48;;;20.48;;
20417;SDS011;10368;51.436;6.774;2024-02-28T13:27:23;30.70;;;20.55;;
20417;SDS011;10368;51.436;6.774;2024-02-28T13:29:50;31.05;;;19.00;;
20417;SDS011;10368;51.436;6.774;2024-02-28T13:32:20;26.77;;;17.30;;
20417;SDS011;10368;51.436;6.774;2024-02-28T13:34:47;34.92;;;19.77;;
20417;SDS011;10368;51.436;6.774;2024-02-28T13:37:15;31.85;;;19.58;;
20417;SDS011;10368;51.436;6.774;2024-02-28T13:39:42;23.55;;;17.10;;
20417;SDS011;10368;51.436;6.774;2024-02-28T13:42:10;29.98;;;18.45;;
20417;SDS011;10368;51.436;6.774;2024-02-28T13:44:37;28.33;;;17.58;;
20417;SDS011;10368;51.436;6.774;2024-02-28T13:47:04;26.08;;;18.42;;
20417;SDS011;10368;51.436;6.774;2024-02-28T13:49:32;34.30;;;19.60;;
20417;SDS011;10368;51.436;6.774;2024-02-28T13:51:59;29.33;;;17.83;;
20417;SDS011;10368;51.436;6.774;2024-02-28T13:54:26;23.92;;;16.42;;
20417;SDS011;10368;51.436;6.774;2024-02-28T13:56:53;30.63;;;18.05;;
20417;SDS011;10368;51.436;6.774;2024-02-28T13:59:20;23.13;;;16.70;;
20417;SDS011;10368;51.436;6.774;2024-02-28T14:01:47;27.58;;;18.70;;
20417;SDS011;10368;51.436;6.774;2024-02-28T14:04:15;29.73;;;17.48;;
20417;SDS011;10368;51.436;6.774;2024-02-28T14:06:42;29.45;;;18.52;;
20417;SDS011;10368;51.436;6.774;2024-02-28T14:09:11;38.40;;;21.30;;
20417;SDS011;10368;51.436;6.774;2024-02-28T14:11:38;27.15;;;17.70;;
20417;SDS011;10368;51.436;6.774;2024-02-28T14:14:05;28.83;;;17.95;;
20417;SDS011;10368;51.436;6.774;2024-02-28T14:16:33;33.88;;;19.30;;
20417;SDS011;10368;51.436;6.774;2024-02-28T14:19:00;24.98;;;16.13;;
20417;SDS011;10368;51.436;6.774;2024-02-28T14:21:27;26.70;;;17.25;;
20417;SDS011;10368;51.436;6.774;2024-02-28T14:23:56;34.45;;;17.90;;
20417;SDS011;10368;51.436;6.774;2024-02-28T14:26:23;27.02;;;17.60;;
20417;SDS011;10368;51.436;6.774;2024-02-28T14:28:50;26.65;;;17.77;;
20417;SDS011;10368;51.436;6.774;2024-02-28T14:31:17;29.27;;;17.95;;
20417;SDS011;10368;51.436;6.774;2024-02-28T14:33:44;30.38;;;18.58;;
20417;SDS011;10368;51.436;6.774;2024-02-28T14:36:12;27.63;;;18.08;;
20417;SDS011;10368;51.436;6.774;2024-02-28T14:38:40;27.00;;;18.47;;